FJDG

Diego Garcia NSF Airport

Camp Justice, British Indian Ocean Territory
METAR FJDG 170755Z 26009KT 9999 FEW020 SCT080 BKN230 32/26 A2982 RMK SLP095 T03170264
Observed Flight Rules
Dec-17 @ 07:55 UTC (39 minutes ago) Visual Flight Rules
Wind Visibility Clouds
260° at 9 knots 10,000+ meters
  • Few at 2,000' AGL
  • Scattered at 8,000' AGL
  • Broken at 23,000' AGL
Temperatures Readings
Current 32°C / 90°F
Dewpoint 26°C / 79°F
Humidity 71%
Altimeter 29.82" Hg
Pressure 1009.5 hPa
Elevation 3
METAR FJDG 170755Z 26009KT 9999 FEW020 SCT080 BKN230 32/26 A2982 RMK SLP095 T03170264
Observed Flight Rules
Dec-17 @ 07:55 UTC
(39 minutes ago)
VFR
Wind Visibility
260° at 9 knots 10,000+ meters
Clouds
  • Few at 2,000' AGL
  • Scattered at 8,000' AGL
  • Broken at 23,000' AGL
Temperature Dewpoint
32°C / 90°F 26°C / 79°F
Humidity Altimeter Pressure
71% 29.82" Hg 1009.5 hPa